createdAt,value
2019-04-28T00:02:11.116Z,80.11
2019-04-28T00:04:41.612Z,79.99
2019-04-28T00:07:12.034Z,79.79
2019-04-28T00:09:42.533Z,79.86
2019-04-28T00:12:11.923Z,79.87
2019-04-28T00:14:42.349Z,79.78
2019-04-28T00:17:12.866Z,79.84
2019-04-28T00:19:44.487Z,79.72
2019-04-28T00:22:21.003Z,79.67
2019-04-28T00:25:04.465Z,79.78
2019-04-28T00:27:34.699Z,79.63
2019-04-28T00:30:11.655Z,79.57
2019-04-28T00:32:42.692Z,79.59
2019-04-28T00:35:12.786Z,79.54
2019-04-28T00:37:42.620Z,79.36
2019-04-28T00:40:13.423Z,79.47
2019-04-28T00:42:43.492Z,79.25
2019-04-28T00:45:16.120Z,79.05
2019-04-28T00:47:46.023Z,78.54
2019-04-28T00:50:16.633Z,78.72
2019-04-28T00:52:46.726Z,78.65
2019-04-28T00:55:16.465Z,78.50
2019-04-28T00:57:46.109Z,78.25
2019-04-28T01:00:18.404Z,78.33
2019-04-28T01:02:48.655Z,78.49
2019-04-28T01:05:21.363Z,77.77
2019-04-28T01:07:52.739Z,78.18
2019-04-28T01:10:23.236Z,77.86
2019-04-28T01:12:52.880Z,77.99
2019-04-28T01:15:41.412Z,77.99
2019-04-28T01:18:33.681Z,77.77
2019-04-28T01:21:03.407Z,77.89
2019-04-28T01:23:38.018Z,77.96
2019-04-28T01:26:09.948Z,77.82
2019-04-28T01:28:40.190Z,77.83
2019-04-28T01:31:27.282Z,78.00
2019-04-28T01:34:20.346Z,78.15
2019-04-28T01:36:51.679Z,78.15
2019-04-28T01:39:23.322Z,77.96
2019-04-28T01:41:52.973Z,77.86
2019-04-28T01:44:22.903Z,78.06
2019-04-28T01:46:56.320Z,78.04
2019-04-28T01:49:26.071Z,77.83
2019-04-28T01:52:00.892Z,77.70
2019-04-28T01:54:31.098Z,77.75
2019-04-28T01:57:01.698Z,77.89
2019-04-28T01:59:32.990Z,77.91
2019-04-28T02:02:02.580Z,77.73
2019-04-28T02:04:32.704Z,77.60
2019-04-28T02:07:02.264Z,77.86
2019-04-28T02:09:31.928Z,77.95
2019-04-28T02:12:01.973Z,77.73
2019-04-28T02:14:31.786Z,77.74
2019-04-28T02:17:01.441Z,77.88
2019-04-28T02:19:32.990Z,77.92
2019-04-28T02:22:21.688Z,78.03
2019-04-28T02:24:51.487Z,78.31
2019-04-28T02:27:23.706Z,78.24
2019-04-28T02:29:53.090Z,78.36
2019-04-28T02:32:24.452Z,78.52
2019-04-28T02:34:55.581Z,78.42
2019-04-28T02:37:25.682Z,78.37
2019-04-28T02:39:56.326Z,78.13
2019-04-28T02:42:26.272Z,78.16
2019-04-28T02:44:56.012Z,78.30
2019-04-28T02:47:25.856Z,78.14
2019-04-28T02:50:07.258Z,77.95
2019-04-28T02:52:54.619Z,77.96
2019-04-28T02:55:25.809Z,78.16
2019-04-28T02:57:56.744Z,78.25
2019-04-28T03:00:26.423Z,78.29
2019-04-28T03:02:56.363Z,78.34
2019-04-28T03:05:27.000Z,78.38
2019-04-28T03:07:56.899Z,78.35
2019-04-28T03:10:27.258Z,78.60
2019-04-28T03:12:57.657Z,78.65
2019-04-28T03:15:30.181Z,78.48
2019-04-28T03:18:02.085Z,78.54
2019-04-28T03:20:32.478Z,78.73
2019-04-28T03:23:03.118Z,78.91
2019-04-28T03:25:43.019Z,78.78
2019-04-28T03:28:41.406Z,78.88
2019-04-28T03:32:04.268Z,78.87
2019-04-28T03:34:04.109Z,78.80
2019-04-28T03:36:34.249Z,78.97
2019-04-28T03:39:06.660Z,78.91
2019-04-28T03:41:36.484Z,78.62
2019-04-28T03:44:06.649Z,78.78
2019-04-28T03:46:44.025Z,78.74
2019-04-28T03:49:31.993Z,78.50
2019-04-28T03:52:03.796Z,78.57
2019-04-28T03:54:34.041Z,78.65
2019-04-28T03:57:03.838Z,78.39
2019-04-28T03:59:35.558Z,78.45
2019-04-28T04:02:06.904Z,78.38
2019-04-28T04:04:36.981Z,78.41
2019-04-28T04:07:07.356Z,78.19
2019-04-28T04:09:51.494Z,78.00
2019-04-28T04:12:31.962Z,78.00
2019-04-28T04:15:30.941Z,78.09
2019-04-28T04:18:11.030Z,78.08
2019-04-28T04:20:43.467Z,78.08
2019-04-28T04:23:13.330Z,78.32
2019-04-28T04:25:43.183Z,78.33
2019-04-28T04:28:13.362Z,78.43
2019-04-28T04:30:42.995Z,78.29
2019-04-28T04:33:13.127Z,78.37
2019-04-28T04:35:43.639Z,78.30
2019-04-28T04:38:14.691Z,77.95
2019-04-28T04:40:46.850Z,77.73
2019-04-28T04:43:16.528Z,77.75
2019-04-28T04:45:46.630Z,77.82
2019-04-28T04:48:16.733Z,77.79
2019-04-28T04:50:46.944Z,77.23
2019-04-28T04:53:17.368Z,77.07
2019-04-28T04:55:47.090Z,76.96
2019-04-28T04:58:16.712Z,76.75
2019-04-28T05:01:02.551Z,76.82
2019-04-28T05:03:34.970Z,76.87
2019-04-28T05:06:24.377Z,76.77
2019-04-28T05:08:54.007Z,76.21
2019-04-28T05:11:25.444Z,76.30
2019-04-28T05:13:55.888Z,76.01
2019-04-28T05:16:25.550Z,75.94
2019-04-28T05:18:56.405Z,75.68
2019-04-28T05:21:26.082Z,75.69
2019-04-28T05:24:20.093Z,75.61
2019-04-28T05:26:51.702Z,75.99
2019-04-28T05:29:26.692Z,75.69
2019-04-28T05:31:59.747Z,75.56
2019-04-28T05:34:29.666Z,75.44
2019-04-28T05:37:00.712Z,75.95
2019-04-28T05:39:32.014Z,75.29
2019-04-28T05:42:02.386Z,75.01
2019-04-28T05:44:32.612Z,75.15
2019-04-28T05:47:02.215Z,74.73
2019-04-28T05:50:00.220Z,75.11
2019-04-28T05:53:02.324Z,75.00
2019-04-28T05:55:56.505Z,74.86
2019-04-28T05:58:32.151Z,74.78
2019-04-28T06:01:12.885Z,74.98
2019-04-28T06:03:42.850Z,74.56
2019-04-28T06:06:15.729Z,74.21
2019-04-28T06:09:04.277Z,72.55
2019-04-28T06:11:36.794Z,72.05
2019-04-28T06:14:06.484Z,71.34
2019-04-28T06:16:36.896Z,71.79
2019-04-28T06:19:07.438Z,71.01
2019-04-28T06:21:37.787Z,70.90
2019-04-28T06:24:07.758Z,70.74
2019-04-28T06:26:38.378Z,69.17
2019-04-28T06:29:08.776Z,68.47
2019-04-28T06:31:39.998Z,69.65
2019-04-28T06:34:11.651Z,69.46
2019-04-28T06:36:41.418Z,68.93
2019-04-28T06:39:12.057Z,68.91
2019-04-28T06:41:42.264Z,67.91
2019-04-28T06:44:12.077Z,70.00
2019-04-28T06:46:42.838Z,69.10
2019-04-28T06:49:13.213Z,68.55
2019-04-28T06:51:42.836Z,68.16
2019-04-28T06:54:13.253Z,68.24
2019-04-28T06:56:42.772Z,68.04
2019-04-28T06:59:12.588Z,67.00
2019-04-28T07:01:42.407Z,66.17
2019-04-28T07:04:12.480Z,66.54
2019-04-28T07:06:41.899Z,67.90
2019-04-28T07:09:12.961Z,70.03
2019-04-28T07:11:42.565Z,70.37
2019-04-28T07:14:11.998Z,70.21
2019-04-28T07:16:42.878Z,72.37
2019-04-28T07:19:12.258Z,73.57
2019-04-28T07:22:04.447Z,73.17
2019-04-28T07:24:34.682Z,73.02
2019-04-28T07:27:06.620Z,74.59
2019-04-28T07:30:24.628Z,73.04
2019-04-28T07:32:54.469Z,73.50
2019-04-28T07:35:25.789Z,71.87
2019-04-28T07:37:59.534Z,73.14
2019-04-28T07:40:31.449Z,72.11
2019-04-28T07:43:00.995Z,71.56
2019-04-28T07:45:32.801Z,71.51
2019-04-28T07:48:03.754Z,69.68
2019-04-28T07:50:33.257Z,70.49
2019-04-28T07:53:29.720Z,69.33
2019-04-28T07:56:00.303Z,68.45
2019-04-28T07:58:31.110Z,68.49
2019-04-28T08:01:01.427Z,66.98
2019-04-28T08:03:31.172Z,68.51
2019-04-28T08:06:01.423Z,69.34
2019-04-28T08:08:30.808Z,68.53
2019-04-28T08:11:00.384Z,67.84
2019-04-28T08:13:30.214Z,69.31
2019-04-28T08:16:03.359Z,69.06
2019-04-28T08:18:34.312Z,67.68
2019-04-28T08:21:06.619Z,67.58
2019-04-28T08:23:47.263Z,67.25
2019-04-28T08:26:13.879Z,66.09
2019-04-28T08:28:45.040Z,65.71
2019-04-28T08:31:19.512Z,66.29
2019-04-28T08:34:02.299Z,66.19
2019-04-28T08:36:29.142Z,66.41
2019-04-28T08:39:28.297Z,66.04
2019-04-28T08:41:58.362Z,64.86
2019-04-28T08:44:28.183Z,63.75
2019-04-28T08:46:58.797Z,64.18
2019-04-28T08:49:33.905Z,62.88
2019-04-28T08:52:03.480Z,62.98
2019-04-28T08:54:37.509Z,61.18
2019-04-28T08:57:10.252Z,60.09
2019-04-28T08:59:42.553Z,59.97
2019-04-28T09:02:13.343Z,60.42
2019-04-28T09:04:43.262Z,60.99
2019-04-28T09:07:13.816Z,58.43
2019-04-28T09:09:46.007Z,58.55
2019-04-28T09:12:16.183Z,59.92
2019-04-28T09:14:47.770Z,57.62
2019-04-28T09:17:17.406Z,57.91
2019-04-28T09:19:55.933Z,59.06
2019-04-28T09:22:26.308Z,58.75
2019-04-28T09:25:00.882Z,57.45
2019-04-28T09:27:31.159Z,59.24
2019-04-28T09:30:06.978Z,56.33
2019-04-28T09:32:38.893Z,53.87
2019-04-28T09:35:10.581Z,53.96
2019-04-28T09:37:41.628Z,52.23
2019-04-28T09:40:20.838Z,51.88
2019-04-28T09:43:08.373Z,50.85
2019-04-28T09:45:58.800Z,52.83
2019-04-28T09:48:29.846Z,51.06
2019-04-28T09:51:02.634Z,51.35
2019-04-28T09:53:40.033Z,50.07
2019-04-28T09:56:10.165Z,48.43
2019-04-28T09:58:41.364Z,51.62
2019-04-28T10:01:11.329Z,49.90
2019-04-28T10:03:40.858Z,45.71
2019-04-28T10:06:11.092Z,44.22
2019-04-28T10:08:40.507Z,40.99
2019-04-28T10:11:10.947Z,38.59
2019-04-28T10:13:40.468Z,44.05
2019-04-28T10:16:12.271Z,45.48
2019-04-28T10:18:41.975Z,42.55
2019-04-28T10:21:12.935Z,45.14
2019-04-28T10:23:43.679Z,42.64
2019-04-28T10:26:16.167Z,44.65
2019-04-28T10:28:48.756Z,45.25
2019-04-28T10:31:19.019Z,42.52
2019-04-28T10:33:57.226Z,40.27
2019-04-28T10:36:31.349Z,40.21
2019-04-28T10:39:20.462Z,40.96
2019-04-28T10:41:56.803Z,39.83
2019-04-28T10:44:28.468Z,38.18
2019-04-28T10:46:58.791Z,39.00
2019-04-28T10:49:31.349Z,37.60
2019-04-28T10:52:03.950Z,37.44
2019-04-28T10:54:34.476Z,36.40
2019-04-28T10:57:04.907Z,36.84
2019-04-28T10:59:35.541Z,35.59
2019-04-28T11:02:05.416Z,37.11
2019-04-28T11:04:50.852Z,39.42
2019-04-28T11:07:20.736Z,38.38
2019-04-28T11:10:28.891Z,36.94
2019-04-28T11:12:59.009Z,37.41
2019-04-28T11:15:36.863Z,38.33
2019-04-28T11:18:09.535Z,39.60
2019-04-28T11:20:38.983Z,38.54
2019-04-28T11:26:11.300Z,37.33
2019-04-28T11:28:53.202Z,35.27
2019-04-28T11:31:19.461Z,34.91
2019-04-28T11:34:00.969Z,35.41
2019-04-28T11:36:33.169Z,33.92
2019-04-28T11:39:04.915Z,33.18
2019-04-28T11:41:35.777Z,34.37
2019-04-28T11:44:05.839Z,34.04
2019-04-28T11:46:37.942Z,37.54
2019-04-28T11:49:07.621Z,36.35
2019-04-28T11:51:37.915Z,35.07
2019-04-28T11:54:08.920Z,35.15
2019-04-28T11:56:41.548Z,36.30
2019-04-28T11:59:11.240Z,34.42
2019-04-28T12:01:41.018Z,35.52
2019-04-28T12:04:12.895Z,36.29
2019-04-28T12:06:43.594Z,35.18
2019-04-28T12:09:24.198Z,33.52
2019-04-28T12:11:55.187Z,34.01
2019-04-28T12:14:30.525Z,36.78
2019-04-28T12:17:18.616Z,38.64
2019-04-28T12:19:54.301Z,38.95
2019-04-28T12:22:25.298Z,36.71
2019-04-28T12:24:55.645Z,35.56
2019-04-28T12:27:25.828Z,36.52
2019-04-28T12:29:55.256Z,36.12
2019-04-28T12:32:26.870Z,34.28
2019-04-28T12:34:56.812Z,32.85
2019-04-28T12:37:26.465Z,32.08
2019-04-28T12:39:56.648Z,31.78
2019-04-28T12:42:26.306Z,34.05
2019-04-28T12:44:57.516Z,33.41
2019-04-28T12:47:28.645Z,33.31
2019-04-28T12:50:10.482Z,36.01
2019-04-28T12:52:40.418Z,35.66
2019-04-28T12:55:12.799Z,37.81
2019-04-28T12:57:43.733Z,38.05
2019-04-28T13:00:33.511Z,39.14
2019-04-28T13:03:35.510Z,39.78
2019-04-28T13:06:06.908Z,38.52
2019-04-28T13:08:36.355Z,39.36
2019-04-28T13:11:06.125Z,39.00
2019-04-28T13:13:35.887Z,40.25
2019-04-28T13:16:07.620Z,38.82
2019-04-28T13:18:38.919Z,37.59
2019-04-28T13:21:09.107Z,37.17
2019-04-28T13:23:41.086Z,36.33
2019-04-28T13:26:11.163Z,35.49
2019-04-28T13:28:42.001Z,36.29
2019-04-28T13:31:12.418Z,34.98
2019-04-28T13:33:55.947Z,35.96
2019-04-28T13:36:15.420Z,37.06
2019-04-28T13:38:46.134Z,37.65
2019-04-28T13:41:16.819Z,37.36
2019-04-28T13:43:46.941Z,37.47
2019-04-28T13:46:17.915Z,36.03
2019-04-28T13:48:48.132Z,36.91
2019-04-28T13:51:17.650Z,35.85
2019-04-28T13:53:47.730Z,36.66
2019-04-28T13:56:18.005Z,36.14
2019-04-28T13:58:53.501Z,35.20
2019-04-28T14:01:39.290Z,35.36
2019-04-28T14:04:32.431Z,35.96
2019-04-28T14:07:07.489Z,38.41
2019-04-28T14:09:38.639Z,37.96
2019-04-28T14:12:08.696Z,36.24
2019-04-28T14:14:39.508Z,37.69
2019-04-28T14:17:09.893Z,37.39
2019-04-28T14:19:40.089Z,38.33
2019-04-28T14:22:10.926Z,38.56
2019-04-28T14:24:41.743Z,37.03
2019-04-28T14:27:13.190Z,36.80
2019-04-28T14:29:43.144Z,35.00
2019-04-28T14:32:13.368Z,36.17
2019-04-28T14:34:43.166Z,36.17
2019-04-28T14:37:13.409Z,38.37
2019-04-28T14:39:43.308Z,37.79
2019-04-28T14:42:13.877Z,37.13
2019-04-28T14:44:43.770Z,37.85
2019-04-28T14:47:13.554Z,37.32
2019-04-28T14:49:43.933Z,37.34
2019-04-28T14:52:15.067Z,38.12
2019-04-28T14:54:44.669Z,38.47
2019-04-28T14:57:17.173Z,39.19
2019-04-28T14:59:47.834Z,40.06
2019-04-28T15:02:25.125Z,41.47
2019-04-28T15:05:12.745Z,41.27
2019-04-28T15:08:00.756Z,42.21
2019-04-28T15:10:49.962Z,42.24
2019-04-28T15:13:22.413Z,44.12
2019-04-28T15:15:52.438Z,44.59
2019-04-28T15:18:21.921Z,44.49
2019-04-28T15:20:52.360Z,43.22
2019-04-28T15:23:24.927Z,42.65
2019-04-28T15:25:56.837Z,42.43
2019-04-28T15:28:27.301Z,41.43
2019-04-28T15:30:57.269Z,41.68
2019-04-28T15:33:27.976Z,42.12
2019-04-28T15:35:57.776Z,42.33
2019-04-28T15:38:29.722Z,42.33
2019-04-28T15:41:02.544Z,41.48
2019-04-28T15:43:34.660Z,41.21
2019-04-28T15:46:14.102Z,41.36
2019-04-28T15:48:44.681Z,41.56
2019-04-28T15:51:16.023Z,42.50
2019-04-28T15:53:50.190Z,42.75
2019-04-28T15:56:29.330Z,43.25
2019-04-28T15:59:00.523Z,44.19
2019-04-28T16:01:31.458Z,44.58
2019-04-28T16:04:04.559Z,45.34
2019-04-28T16:06:34.319Z,45.58
2019-04-28T16:09:06.949Z,45.79
2019-04-28T16:11:38.507Z,45.69
2019-04-28T16:14:08.201Z,45.72
2019-04-28T16:16:38.754Z,47.19
2019-04-28T16:19:09.214Z,46.67
2019-04-28T16:21:39.336Z,46.02
2019-04-28T16:24:09.649Z,45.62
2019-04-28T16:26:39.130Z,44.84
2019-04-28T16:29:09.231Z,45.30
2019-04-28T16:31:39.108Z,44.79
2019-04-28T16:34:11.358Z,44.48
2019-04-28T16:36:42.116Z,44.88
2019-04-28T16:39:12.581Z,44.25
2019-04-28T16:41:51.105Z,45.02
2019-04-28T16:44:26.389Z,44.43
2019-04-28T16:46:56.534Z,46.02
2019-04-28T16:49:28.380Z,45.62
2019-04-28T16:52:03.015Z,46.51
2019-04-28T16:54:33.497Z,46.79
2019-04-28T16:57:14.527Z,48.18
2019-04-28T16:59:50.009Z,48.29
2019-04-28T17:02:32.124Z,48.71
2019-04-28T17:05:03.755Z,49.03
2019-04-28T17:07:36.981Z,48.22
2019-04-28T17:10:10.594Z,47.92
2019-04-28T17:12:42.917Z,47.72
2019-04-28T17:15:15.403Z,47.80
2019-04-28T17:17:49.744Z,48.35
2019-04-28T17:20:19.972Z,47.72
2019-04-28T17:22:51.364Z,47.73
2019-04-28T17:25:22.828Z,47.38
2019-04-28T17:27:52.755Z,47.51
2019-04-28T17:30:23.684Z,47.12
2019-04-28T17:32:53.851Z,46.81
2019-04-28T17:35:23.601Z,46.21
2019-04-28T17:38:06.038Z,46.58
2019-04-28T17:40:27.579Z,46.95
2019-04-28T17:42:58.825Z,47.93
2019-04-28T17:45:28.962Z,48.36
2019-04-28T17:48:03.582Z,48.52
2019-04-28T17:50:33.805Z,48.62
2019-04-28T17:53:04.655Z,48.61
2019-04-28T17:55:35.117Z,50.00
2019-04-28T17:58:05.153Z,51.01
2019-04-28T18:00:47.894Z,50.52
2019-04-28T18:03:35.000Z,51.00
2019-04-28T18:06:18.206Z,52.18
2019-04-28T18:08:46.568Z,52.88
2019-04-28T18:11:16.573Z,53.82
2019-04-28T18:13:47.426Z,54.13
2019-04-28T18:16:48.798Z,54.65
2019-04-28T18:19:20.106Z,54.86
2019-04-28T18:21:50.653Z,55.61
2019-04-28T18:24:20.940Z,55.82
2019-04-28T18:26:52.399Z,56.21
2019-04-28T18:29:24.188Z,56.66
2019-04-28T18:32:11.818Z,56.95
2019-04-28T18:35:08.471Z,57.35
2019-04-28T18:38:09.404Z,57.58
2019-04-28T18:41:03.495Z,57.98
2019-04-28T18:43:55.076Z,58.35
2019-04-28T18:46:29.162Z,58.18
2019-04-28T18:48:58.889Z,58.35
2019-04-28T18:51:29.990Z,58.47
2019-04-28T18:54:01.908Z,59.07
2019-04-28T18:56:32.244Z,59.18
2019-04-28T18:59:02.027Z,59.26
2019-04-28T19:01:45.687Z,59.65
2019-04-28T19:04:18.812Z,59.82
2019-04-28T19:06:49.545Z,59.75
2019-04-28T19:09:45.713Z,59.83
2019-04-28T19:12:40.186Z,60.02
2019-04-28T19:15:27.810Z,59.89
2019-04-28T19:18:04.860Z,59.99
2019-04-28T19:20:34.385Z,60.18
2019-04-28T19:23:07.253Z,60.56
2019-04-28T19:25:37.803Z,60.85
2019-04-28T19:28:09.454Z,61.41
2019-04-28T19:30:45.745Z,61.44
2019-04-28T19:33:17.405Z,61.68
2019-04-28T19:35:47.408Z,61.75
2019-04-28T19:38:22.051Z,62.13
2019-04-28T19:40:56.516Z,61.85
2019-04-28T19:43:33.218Z,61.97
2019-04-28T19:46:05.709Z,62.19
2019-04-28T19:48:35.871Z,62.68
2019-04-28T19:51:06.440Z,62.97
2019-04-28T19:53:36.592Z,63.25
2019-04-28T19:56:19.463Z,63.51
2019-04-28T19:59:00.516Z,63.56
2019-04-28T20:01:37.878Z,63.87
2019-04-28T20:04:09.403Z,64.07
2019-04-28T20:06:39.717Z,64.58
2019-04-28T20:09:09.800Z,64.93
2019-04-28T20:11:42.648Z,64.90
2019-04-28T20:14:18.889Z,64.85
2019-04-28T20:16:50.312Z,65.01
2019-04-28T20:19:22.946Z,65.08
2019-04-28T20:21:53.247Z,65.29
2019-04-28T20:24:23.116Z,65.36
2019-04-28T20:26:53.940Z,65.23
2019-04-28T20:29:28.267Z,65.12
2019-04-28T20:31:59.764Z,65.13
2019-04-28T20:34:30.789Z,65.22
2019-04-28T20:37:20.080Z,65.40
2019-04-28T20:39:53.933Z,65.49
2019-04-28T20:42:56.538Z,65.42
2019-04-28T20:45:29.157Z,65.39
2019-04-28T20:48:01.297Z,65.12
2019-04-28T20:50:33.873Z,65.23
2019-04-28T20:53:04.283Z,65.19
2019-04-28T20:55:34.904Z,65.27
2019-04-28T20:58:05.158Z,65.18
2019-04-28T21:00:35.498Z,64.83
2019-04-28T21:03:05.637Z,64.52
2019-04-28T21:05:37.773Z,64.29
2019-04-28T21:08:09.846Z,64.49
2019-04-28T21:10:39.860Z,64.56
2019-04-28T21:13:11.145Z,64.68
2019-04-28T21:15:43.408Z,64.76
2019-04-28T21:18:14.814Z,64.78
2019-04-28T21:20:47.407Z,64.86
2019-04-28T21:23:17.810Z,65.08
2019-04-28T21:25:47.605Z,65.37
2019-04-28T21:28:17.773Z,65.40
2019-04-28T21:30:48.019Z,65.53
2019-04-28T21:33:18.457Z,65.55
2019-04-28T21:35:51.800Z,65.83
2019-04-28T21:38:24.705Z,66.02
2019-04-28T21:41:01.012Z,66.24
2019-04-28T21:44:06.342Z,66.20
2019-04-28T21:46:58.357Z,66.53
2019-04-28T21:49:30.227Z,66.96
2019-04-28T21:51:59.707Z,67.01
2019-04-28T21:54:30.086Z,67.26
2019-04-28T21:57:00.073Z,67.63
2019-04-28T21:59:29.833Z,67.83
2019-04-28T22:02:02.336Z,67.77
2019-04-28T22:04:32.048Z,67.96
2019-04-28T22:07:02.909Z,68.10
2019-04-28T22:09:34.054Z,68.28
2019-04-28T22:12:07.785Z,68.67
2019-04-28T22:14:37.543Z,68.88
2019-04-28T22:17:08.216Z,69.16
2019-04-28T22:19:40.715Z,69.42
2019-04-28T22:22:11.394Z,69.48
2019-04-28T22:24:54.094Z,69.76
2019-04-28T22:27:29.146Z,69.54
2019-04-28T22:30:05.719Z,69.45
2019-04-28T22:32:39.367Z,69.60
2019-04-28T22:35:10.811Z,69.75
2019-04-28T22:37:42.401Z,69.73
2019-04-28T22:40:12.270Z,69.82
2019-04-28T22:42:41.958Z,69.98
2019-04-28T22:45:15.055Z,70.19
2019-04-28T22:47:45.536Z,70.58
2019-04-28T22:50:36.145Z,70.74
2019-04-28T22:53:06.307Z,70.74
2019-04-28T22:55:39.867Z,71.02
2019-04-28T22:58:23.585Z,71.34
2019-04-28T23:01:11.995Z,71.05
2019-04-28T23:03:53.153Z,71.45
2019-04-28T23:06:22.670Z,71.56
2019-04-28T23:08:52.736Z,71.93
2019-04-28T23:11:23.243Z,71.85
2019-04-28T23:13:53.425Z,71.80
2019-04-28T23:16:23.906Z,71.82
2019-04-28T23:18:53.661Z,71.79
2019-04-28T23:21:51.897Z,71.70
2019-04-28T23:24:23.011Z,72.22
2019-04-28T23:26:52.623Z,72.45
2019-04-28T23:29:22.614Z,72.54
2019-04-28T23:31:52.493Z,72.68
2019-04-28T23:34:21.981Z,72.40
2019-04-28T23:36:51.772Z,72.43
2019-04-28T23:39:25.372Z,72.47
2019-04-28T23:42:06.977Z,72.67
2019-04-28T23:44:37.541Z,72.90
2019-04-28T23:47:08.131Z,73.03
2019-04-28T23:49:40.075Z,73.03
2019-04-28T23:52:28.685Z,73.42
2019-04-28T23:55:01.024Z,73.67
2019-04-28T23:57:31.247Z,73.63
